Youyang, China
Current Conditions -  °F | °C
As of 3:00 PM on Friday 28 Nov 2014 (Local Time) from ZUCK Reporting Station
Scattered Clouds Scattered Clouds  
Wind Chill: 59°   Ceiling: Unl
Heat Index: 59°   Visibility: 4mi
Dew Point: 52°   Wind: 2mph
Humidity: 77%   Direction: NA
Pressure: 29.88"   Gusts: NA
Location:  28.83°N, 108.77°E
Report Text: ZUCK 280700Z VRB01MPS 7000 FEW016 SCT040 15/11 Q1012 NOSIG
Loading
Personal Weather Stations






























Interactive Weather Map New forecast layout! Learn more

10-Day Weather Forecast

Advertisements
Track Severe Weather on mobile